sensor_id;sensor_type;location;lat;lon;timestamp;temperature;humidity
51725;DHT22;37801;53.224;6.552;2022-10-17T00:01:11;12.30;99.90
51725;DHT22;37801;53.224;6.552;2022-10-17T00:03:37;12.30;99.90
51725;DHT22;37801;53.224;6.552;2022-10-17T00:06:08;12.30;99.90
51725;DHT22;37801;53.224;6.552;2022-10-17T00:08:36;12.30;99.90
51725;DHT22;37801;53.224;6.552;2022-10-17T00:11:05;12.30;99.90
51725;DHT22;37801;53.224;6.552;2022-10-17T00:13:31;12.30;99.90
51725;DHT22;37801;53.224;6.552;2022-10-17T00:15:57;12.30;99.90
51725;DHT22;37801;53.224;6.552;2022-10-17T00:18:23;12.30;99.90
51725;DHT22;37801;53.224;6.552;2022-10-17T00:20:49;12.30;99.90
51725;DHT22;37801;53.224;6.552;2022-10-17T00:23:15;12.30;99.90
51725;DHT22;37801;53.224;6.552;2022-10-17T00:25:41;12.30;99.90
51725;DHT22;37801;53.224;6.552;2022-10-17T00:28:16;12.30;99.90
51725;DHT22;37801;53.224;6.552;2022-10-17T00:30:41;12.30;99.90
51725;DHT22;37801;53.224;6.552;2022-10-17T00:33:07;12.30;99.90
51725;DHT22;37801;53.224;6.552;2022-10-17T00:35:33;12.30;99.90
51725;DHT22;37801;53.224;6.552;2022-10-17T00:37:58;12.40;99.90
51725;DHT22;37801;53.224;6.552;2022-10-17T00:40:24;12.40;99.90
51725;DHT22;37801;53.224;6.552;2022-10-17T00:42:50;12.40;99.90
51725;DHT22;37801;53.224;6.552;2022-10-17T00:45:24;12.40;99.90
51725;DHT22;37801;53.224;6.552;2022-10-17T00:47:55;12.40;99.90
51725;DHT22;37801;53.224;6.552;2022-10-17T00:50:23;12.40;99.90
51725;DHT22;37801;53.224;6.552;2022-10-17T00:52:49;12.40;99.90
51725;DHT22;37801;53.224;6.552;2022-10-17T00:55:27;12.40;99.90
51725;DHT22;37801;53.224;6.552;2022-10-17T00:57:55;12.40;99.90
51725;DHT22;37801;53.224;6.552;2022-10-17T01:00:21;12.40;99.90
51725;DHT22;37801;53.224;6.552;2022-10-17T01:02:48;12.40;99.90
51725;DHT22;37801;53.224;6.552;2022-10-17T01:05:15;12.40;99.90
51725;DHT22;37801;53.224;6.552;2022-10-17T01:07:42;12.50;99.90
51725;DHT22;37801;53.224;6.552;2022-10-17T01:10:09;12.50;99.90
51725;DHT22;37801;53.224;6.552;2022-10-17T01:21:04;12.50;99.90
51725;DHT22;37801;53.224;6.552;2022-10-17T01:31:54;12.50;99.90
51725;DHT22;37801;53.224;6.552;2022-10-17T01:34:38;12.50;99.90
51725;DHT22;37801;53.224;6.552;2022-10-17T01:37:11;12.50;99.90
51725;DHT22;37801;53.224;6.552;2022-10-17T01:42:46;12.60;99.90
51725;DHT22;37801;53.224;6.552;2022-10-17T01:48:07;12.60;99.90
51725;DHT22;37801;53.224;6.552;2022-10-17T01:50:38;12.70;99.90
51725;DHT22;37801;53.224;6.552;2022-10-17T01:53:17;12.70;99.90
51725;DHT22;37801;53.224;6.552;2022-10-17T01:55:45;12.70;99.90
51725;DHT22;37801;53.224;6.552;2022-10-17T01:58:17;12.80;99.90
51725;DHT22;37801;53.224;6.552;2022-10-17T02:00:45;12.80;99.90
51725;DHT22;37801;53.224;6.552;2022-10-17T02:03:16;12.80;99.90
51725;DHT22;37801;53.224;6.552;2022-10-17T02:05:44;12.80;99.90
51725;DHT22;37801;53.224;6.552;2022-10-17T02:08:10;12.90;99.90
51725;DHT22;37801;53.224;6.552;2022-10-17T02:11:00;12.90;99.90
51725;DHT22;37801;53.224;6.552;2022-10-17T02:13:30;12.90;99.90
51725;DHT22;37801;53.224;6.552;2022-10-17T02:22:10;12.80;99.90
51725;DHT22;37801;53.224;6.552;2022-10-17T02:24:55;12.80;99.90
51725;DHT22;37801;53.224;6.552;2022-10-17T02:30:05;12.80;99.90
51725;DHT22;37801;53.224;6.552;2022-10-17T02:33:01;12.80;99.90
51725;DHT22;37801;53.224;6.552;2022-10-17T02:35:37;12.80;99.90
51725;DHT22;37801;53.224;6.552;2022-10-17T02:38:05;12.80;99.90
51725;DHT22;37801;53.224;6.552;2022-10-17T02:40:33;12.70;99.90
51725;DHT22;37801;53.224;6.552;2022-10-17T02:43:00;12.70;99.90
51725;DHT22;37801;53.224;6.552;2022-10-17T02:45:28;12.70;99.90
51725;DHT22;37801;53.224;6.552;2022-10-17T02:48:33;12.70;99.90
51725;DHT22;37801;53.224;6.552;2022-10-17T02:51:06;12.70;99.90
51725;DHT22;37801;53.224;6.552;2022-10-17T02:56:13;12.70;99.90
51725;DHT22;37801;53.224;6.552;2022-10-17T02:58:41;12.70;99.90
51725;DHT22;37801;53.224;6.552;2022-10-17T03:01:07;12.70;99.90
51725;DHT22;37801;53.224;6.552;2022-10-17T03:03:33;12.70;99.90
51725;DHT22;37801;53.224;6.552;2022-10-17T03:05:59;12.70;99.90
51725;DHT22;37801;53.224;6.552;2022-10-17T03:08:25;12.70;99.90
51725;DHT22;37801;53.224;6.552;2022-10-17T03:10:50;12.70;99.90
51725;DHT22;37801;53.224;6.552;2022-10-17T03:13:16;12.70;99.90
51725;DHT22;37801;53.224;6.552;2022-10-17T03:15:42;12.70;99.90
51725;DHT22;37801;53.224;6.552;2022-10-17T03:18:08;12.70;99.90
51725;DHT22;37801;53.224;6.552;2022-10-17T03:20:34;12.70;99.90
51725;DHT22;37801;53.224;6.552;2022-10-17T03:23:00;12.70;99.90
51725;DHT22;37801;53.224;6.552;2022-10-17T03:25:26;12.70;99.90
51725;DHT22;37801;53.224;6.552;2022-10-17T03:27:52;12.70;99.90
51725;DHT22;37801;53.224;6.552;2022-10-17T03:30:18;12.60;99.90
51725;DHT22;37801;53.224;6.552;2022-10-17T03:32:44;12.60;99.90
51725;DHT22;37801;53.224;6.552;2022-10-17T03:35:10;12.60;99.90
51725;DHT22;37801;53.224;6.552;2022-10-17T03:37:35;12.60;99.90
51725;DHT22;37801;53.224;6.552;2022-10-17T03:40:01;12.60;99.90
51725;DHT22;37801;53.224;6.552;2022-10-17T03:42:27;12.60;99.90
51725;DHT22;37801;53.224;6.552;2022-10-17T03:44:52;12.60;99.90
51725;DHT22;37801;53.224;6.552;2022-10-17T03:47:18;12.60;99.90
51725;DHT22;37801;53.224;6.552;2022-10-17T03:49:44;12.60;99.90
51725;DHT22;37801;53.224;6.552;2022-10-17T03:52:11;12.60;99.90
51725;DHT22;37801;53.224;6.552;2022-10-17T03:54:37;12.60;99.90
51725;DHT22;37801;53.224;6.552;2022-10-17T03:57:02;12.60;99.90
51725;DHT22;37801;53.224;6.552;2022-10-17T03:59:28;12.60;99.90
51725;DHT22;37801;53.224;6.552;2022-10-17T04:01:54;12.60;99.90
51725;DHT22;37801;53.224;6.552;2022-10-17T04:04:20;12.60;99.90
51725;DHT22;37801;53.224;6.552;2022-10-17T04:06:45;12.70;99.90
51725;DHT22;37801;53.224;6.552;2022-10-17T04:09:11;12.60;99.90
51725;DHT22;37801;53.224;6.552;2022-10-17T04:11:37;12.70;99.90
51725;DHT22;37801;53.224;6.552;2022-10-17T04:14:03;12.60;99.90
51725;DHT22;37801;53.224;6.552;2022-10-17T04:16:29;12.60;99.90
51725;DHT22;37801;53.224;6.552;2022-10-17T04:18:56;12.60;99.90
51725;DHT22;37801;53.224;6.552;2022-10-17T04:21:24;12.60;99.90
51725;DHT22;37801;53.224;6.552;2022-10-17T04:23:58;12.60;99.90
51725;DHT22;37801;53.224;6.552;2022-10-17T04:26:25;12.70;99.90
51725;DHT22;37801;53.224;6.552;2022-10-17T04:28:51;12.60;99.90
51725;DHT22;37801;53.224;6.552;2022-10-17T04:31:17;12.70;99.90
51725;DHT22;37801;53.224;6.552;2022-10-17T04:33:46;12.70;99.90
51725;DHT22;37801;53.224;6.552;2022-10-17T04:36:15;12.70;99.90
51725;DHT22;37801;53.224;6.552;2022-10-17T04:38:41;12.80;99.90
51725;DHT22;37801;53.224;6.552;2022-10-17T04:41:11;12.80;99.90
51725;DHT22;37801;53.224;6.552;2022-10-17T04:43:38;12.80;99.90
51725;DHT22;37801;53.224;6.552;2022-10-17T04:46:06;12.80;99.90
51725;DHT22;37801;53.224;6.552;2022-10-17T04:48:33;12.80;99.90
51725;DHT22;37801;53.224;6.552;2022-10-17T04:51:00;12.90;99.90
51725;DHT22;37801;53.224;6.552;2022-10-17T04:53:27;12.90;99.90
51725;DHT22;37801;53.224;6.552;2022-10-17T04:55:54;12.90;99.90
51725;DHT22;37801;53.224;6.552;2022-10-17T04:58:21;13.00;99.90
51725;DHT22;37801;53.224;6.552;2022-10-17T05:00:46;13.00;99.90
51725;DHT22;37801;53.224;6.552;2022-10-17T05:03:12;13.00;99.90
51725;DHT22;37801;53.224;6.552;2022-10-17T05:05:42;13.00;99.90
51725;DHT22;37801;53.224;6.552;2022-10-17T05:08:09;13.00;99.90
51725;DHT22;37801;53.224;6.552;2022-10-17T05:10:38;13.00;99.90
51725;DHT22;37801;53.224;6.552;2022-10-17T05:13:05;13.10;99.90
51725;DHT22;37801;53.224;6.552;2022-10-17T05:15:31;13.10;99.90
51725;DHT22;37801;53.224;6.552;2022-10-17T05:17:57;13.10;99.90
51725;DHT22;37801;53.224;6.552;2022-10-17T05:20:23;13.10;99.90
51725;DHT22;37801;53.224;6.552;2022-10-17T05:22:49;13.20;99.90
51725;DHT22;37801;53.224;6.552;2022-10-17T05:25:15;13.20;99.90
51725;DHT22;37801;53.224;6.552;2022-10-17T05:27:40;13.20;99.90
51725;DHT22;37801;53.224;6.552;2022-10-17T05:30:07;13.30;99.90
51725;DHT22;37801;53.224;6.552;2022-10-17T05:32:33;13.30;99.90
51725;DHT22;37801;53.224;6.552;2022-10-17T05:34:58;13.20;99.90
51725;DHT22;37801;53.224;6.552;2022-10-17T05:37:24;13.20;99.90
51725;DHT22;37801;53.224;6.552;2022-10-17T05:39:50;13.20;99.90
51725;DHT22;37801;53.224;6.552;2022-10-17T05:42:16;13.20;99.90
51725;DHT22;37801;53.224;6.552;2022-10-17T05:44:41;13.20;99.90
51725;DHT22;37801;53.224;6.552;2022-10-17T05:47:07;13.20;99.90
51725;DHT22;37801;53.224;6.552;2022-10-17T05:49:33;13.20;99.90
51725;DHT22;37801;53.224;6.552;2022-10-17T05:51:59;13.20;99.90
51725;DHT22;37801;53.224;6.552;2022-10-17T05:54:26;13.30;99.90
51725;DHT22;37801;53.224;6.552;2022-10-17T05:56:53;13.20;99.90
51725;DHT22;37801;53.224;6.552;2022-10-17T05:59:19;13.30;99.90
51725;DHT22;37801;53.224;6.552;2022-10-17T06:01:45;13.30;99.90
51725;DHT22;37801;53.224;6.552;2022-10-17T06:04:10;13.30;99.90
51725;DHT22;37801;53.224;6.552;2022-10-17T06:06:37;13.30;99.90
51725;DHT22;37801;53.224;6.552;2022-10-17T06:09:03;13.30;99.90
51725;DHT22;37801;53.224;6.552;2022-10-17T06:11:29;13.30;99.90
51725;DHT22;37801;53.224;6.552;2022-10-17T06:13:55;13.30;99.90
51725;DHT22;37801;53.224;6.552;2022-10-17T06:16:21;13.30;99.90
51725;DHT22;37801;53.224;6.552;2022-10-17T06:18:47;13.30;99.90
51725;DHT22;37801;53.224;6.552;2022-10-17T06:21:15;13.30;99.90
51725;DHT22;37801;53.224;6.552;2022-10-17T06:23:41;13.40;99.90
51725;DHT22;37801;53.224;6.552;2022-10-17T06:26:08;13.40;99.90
51725;DHT22;37801;53.224;6.552;2022-10-17T06:28:34;13.40;99.90
51725;DHT22;37801;53.224;6.552;2022-10-17T06:31:08;13.40;99.90
51725;DHT22;37801;53.224;6.552;2022-10-17T06:33:34;13.40;99.90
51725;DHT22;37801;53.224;6.552;2022-10-17T06:36:00;13.40;99.90
51725;DHT22;37801;53.224;6.552;2022-10-17T06:38:26;13.40;99.90
51725;DHT22;37801;53.224;6.552;2022-10-17T06:40:52;13.50;99.90
51725;DHT22;37801;53.224;6.552;2022-10-17T06:43:19;13.50;99.90
51725;DHT22;37801;53.224;6.552;2022-10-17T06:45:45;13.50;99.90
51725;DHT22;37801;53.224;6.552;2022-10-17T06:48:12;13.50;99.90
51725;DHT22;37801;53.224;6.552;2022-10-17T06:50:38;13.60;99.90
51725;DHT22;37801;53.224;6.552;2022-10-17T06:53:04;13.60;99.90
51725;DHT22;37801;53.224;6.552;2022-10-17T06:55:30;13.70;99.90
51725;DHT22;37801;53.224;6.552;2022-10-17T06:57:56;13.60;99.90
51725;DHT22;37801;53.224;6.552;2022-10-17T07:00:22;13.70;99.90
51725;DHT22;37801;53.224;6.552;2022-10-17T07:02:48;13.70;99.90
51725;DHT22;37801;53.224;6.552;2022-10-17T07:05:14;13.70;99.90
51725;DHT22;37801;53.224;6.552;2022-10-17T07:07:40;13.70;99.90
51725;DHT22;37801;53.224;6.552;2022-10-17T07:10:06;13.70;99.90
51725;DHT22;37801;53.224;6.552;2022-10-17T07:12:35;13.70;99.90
51725;DHT22;37801;53.224;6.552;2022-10-17T07:15:01;13.70;99.90
51725;DHT22;37801;53.224;6.552;2022-10-17T07:17:29;13.80;99.90
51725;DHT22;37801;53.224;6.552;2022-10-17T07:19:54;13.90;99.90
51725;DHT22;37801;53.224;6.552;2022-10-17T07:22:20;13.80;99.90
51725;DHT22;37801;53.224;6.552;2022-10-17T07:24:46;13.90;99.90
51725;DHT22;37801;53.224;6.552;2022-10-17T07:27:13;13.90;99.90
51725;DHT22;37801;53.224;6.552;2022-10-17T07:29:39;13.90;99.90
51725;DHT22;37801;53.224;6.552;2022-10-17T07:32:05;13.90;99.90
51725;DHT22;37801;53.224;6.552;2022-10-17T07:34:36;14.00;99.90
51725;DHT22;37801;53.224;6.552;2022-10-17T07:37:02;14.10;99.90
51725;DHT22;37801;53.224;6.552;2022-10-17T07:39:28;14.20;99.90
51725;DHT22;37801;53.224;6.552;2022-10-17T07:41:53;14.30;99.90
51725;DHT22;37801;53.224;6.552;2022-10-17T07:44:19;14.20;99.90
51725;DHT22;37801;53.224;6.552;2022-10-17T07:46:45;14.30;99.90
51725;DHT22;37801;53.224;6.552;2022-10-17T07:49:11;14.40;99.90
51725;DHT22;37801;53.224;6.552;2022-10-17T07:51:37;14.40;99.90
51725;DHT22;37801;53.224;6.552;2022-10-17T07:54:04;14.50;99.90
51725;DHT22;37801;53.224;6.552;2022-10-17T07:56:30;14.60;99.90
51725;DHT22;37801;53.224;6.552;2022-10-17T07:58:56;14.60;99.90
51725;DHT22;37801;53.224;6.552;2022-10-17T08:01:22;14.60;99.90
51725;DHT22;37801;53.224;6.552;2022-10-17T08:03:47;14.60;99.90
51725;DHT22;37801;53.224;6.552;2022-10-17T08:06:14;14.60;99.90
51725;DHT22;37801;53.224;6.552;2022-10-17T08:08:40;14.70;99.90
51725;DHT22;37801;53.224;6.552;2022-10-17T08:11:09;14.80;99.90
51725;DHT22;37801;53.224;6.552;2022-10-17T08:13:36;14.90;99.90
51725;DHT22;37801;53.224;6.552;2022-10-17T08:16:04;15.00;99.90
51725;DHT22;37801;53.224;6.552;2022-10-17T08:18:30;15.00;99.90
51725;DHT22;37801;53.224;6.552;2022-10-17T08:20:59;15.10;99.90
51725;DHT22;37801;53.224;6.552;2022-10-17T08:23:24;15.20;99.90
51725;DHT22;37801;53.224;6.552;2022-10-17T08:25:50;15.20;99.90
51725;DHT22;37801;53.224;6.552;2022-10-17T08:28:16;15.30;99.90
51725;DHT22;37801;53.224;6.552;2022-10-17T08:30:42;15.30;99.90
51725;DHT22;37801;53.224;6.552;2022-10-17T08:33:07;15.40;99.90
51725;DHT22;37801;53.224;6.552;2022-10-17T08:35:33;15.40;99.90
51725;DHT22;37801;53.224;6.552;2022-10-17T08:37:59;15.40;99.90
51725;DHT22;37801;53.224;6.552;2022-10-17T08:40:29;15.40;99.90
51725;DHT22;37801;53.224;6.552;2022-10-17T08:43:04;15.50;99.90
51725;DHT22;37801;53.224;6.552;2022-10-17T08:45:37;15.50;99.90
51725;DHT22;37801;53.224;6.552;2022-10-17T08:48:09;15.60;99.90
51725;DHT22;37801;53.224;6.552;2022-10-17T08:50:48;15.70;99.90
51725;DHT22;37801;53.224;6.552;2022-10-17T08:56:23;15.70;99.90
51725;DHT22;37801;53.224;6.552;2022-10-17T08:58:49;15.70;99.90
51725;DHT22;37801;53.224;6.552;2022-10-17T09:12:17;16.10;99.90
51725;DHT22;37801;53.224;6.552;2022-10-17T09:15:01;16.00;99.90
51725;DHT22;37801;53.224;6.552;2022-10-17T09:20:44;15.90;99.90
51725;DHT22;37801;53.224;6.552;2022-10-17T09:23:15;15.90;99.90
51725;DHT22;37801;53.224;6.552;2022-10-17T09:25:44;15.90;99.90
51725;DHT22;37801;53.224;6.552;2022-10-17T09:33:24;15.90;99.90
51725;DHT22;37801;53.224;6.552;2022-10-17T09:35:50;15.90;99.90
51725;DHT22;37801;53.224;6.552;2022-10-17T09:38:21;15.90;99.90
51725;DHT22;37801;53.224;6.552;2022-10-17T09:40:59;15.90;99.90
51725;DHT22;37801;53.224;6.552;2022-10-17T09:43:25;15.80;99.90
51725;DHT22;37801;53.224;6.552;2022-10-17T09:46:07;15.90;99.90
51725;DHT22;37801;53.224;6.552;2022-10-17T09:48:37;15.80;99.90
51725;DHT22;37801;53.224;6.552;2022-10-17T09:51:05;15.80;99.90
51725;DHT22;37801;53.224;6.552;2022-10-17T09:53:38;15.80;99.90
51725;DHT22;37801;53.224;6.552;2022-10-17T09:56:13;15.80;99.90
51725;DHT22;37801;53.224;6.552;2022-10-17T09:58:58;15.80;99.90
51725;DHT22;37801;53.224;6.552;2022-10-17T10:01:28;15.80;99.90
51725;DHT22;37801;53.224;6.552;2022-10-17T10:04:17;15.80;99.90
51725;DHT22;37801;53.224;6.552;2022-10-17T10:07:04;15.80;99.90
51725;DHT22;37801;53.224;6.552;2022-10-17T10:09:32;15.70;99.90
51725;DHT22;37801;53.224;6.552;2022-10-17T10:12:04;15.70;99.90
51725;DHT22;37801;53.224;6.552;2022-10-17T10:14:35;15.70;99.90
51725;DHT22;37801;53.224;6.552;2022-10-17T10:17:05;15.70;99.90
51725;DHT22;37801;53.224;6.552;2022-10-17T10:19:34;15.70;99.90
51725;DHT22;37801;53.224;6.552;2022-10-17T10:22:03;15.70;99.90
51725;DHT22;37801;53.224;6.552;2022-10-17T10:24:30;15.60;99.90
51725;DHT22;37801;53.224;6.552;2022-10-17T10:26:58;15.60;99.90
51725;DHT22;37801;53.224;6.552;2022-10-17T10:29:33;15.50;99.90
51725;DHT22;37801;53.224;6.552;2022-10-17T10:32:11;15.50;99.90
51725;DHT22;37801;53.224;6.552;2022-10-17T10:35:02;15.50;99.90
51725;DHT22;37801;53.224;6.552;2022-10-17T10:37:43;15.50;99.90
51725;DHT22;37801;53.224;6.552;2022-10-17T10:42:55;15.40;99.90
51725;DHT22;37801;53.224;6.552;2022-10-17T10:45:22;15.40;99.90
51725;DHT22;37801;53.224;6.552;2022-10-17T10:47:59;15.30;99.90
51725;DHT22;37801;53.224;6.552;2022-10-17T10:50:30;15.40;99.90
51725;DHT22;37801;53.224;6.552;2022-10-17T10:56:39;15.30;99.90
51725;DHT22;37801;53.224;6.552;2022-10-17T11:07:13;15.20;99.90
51725;DHT22;37801;53.224;6.552;2022-10-17T11:10:02;15.30;99.90
51725;DHT22;37801;53.224;6.552;2022-10-17T11:12:38;15.30;99.90
51725;DHT22;37801;53.224;6.552;2022-10-17T11:17:44;15.30;99.90
51725;DHT22;37801;53.224;6.552;2022-10-17T11:22:53;15.40;99.90
51725;DHT22;37801;53.224;6.552;2022-10-17T11:25:34;15.40;99.90
51725;DHT22;37801;53.224;6.552;2022-10-17T11:28:02;15.50;99.90
51725;DHT22;37801;53.224;6.552;2022-10-17T11:33:46;15.40;99.90
51725;DHT22;37801;53.224;6.552;2022-10-17T11:36:15;15.40;99.90
51725;DHT22;37801;53.224;6.552;2022-10-17T11:38:55;15.50;99.90
51725;DHT22;37801;53.224;6.552;2022-10-17T11:44:26;15.40;99.90
51725;DHT22;37801;53.224;6.552;2022-10-17T11:49:51;15.40;99.90
51725;DHT22;37801;53.224;6.552;2022-10-17T11:52:32;15.50;99.90
51725;DHT22;37801;53.224;6.552;2022-10-17T11:55:04;15.40;99.90
51725;DHT22;37801;53.224;6.552;2022-10-17T11:58:00;15.40;99.90
51725;DHT22;37801;53.224;6.552;2022-10-17T12:00:37;15.50;99.90
51725;DHT22;37801;53.224;6.552;2022-10-17T12:06:23;15.50;99.90
51725;DHT22;37801;53.224;6.552;2022-10-17T12:09:14;15.50;99.90
51725;DHT22;37801;53.224;6.552;2022-10-17T12:11:56;15.60;99.90
51725;DHT22;37801;53.224;6.552;2022-10-17T12:14:43;15.60;99.90
51725;DHT22;37801;53.224;6.552;2022-10-17T12:19:47;15.60;99.90
51725;DHT22;37801;53.224;6.552;2022-10-17T12:22:25;15.60;99.90
51725;DHT22;37801;53.224;6.552;2022-10-17T12:24:57;15.60;99.90
51725;DHT22;37801;53.224;6.552;2022-10-17T12:27:43;15.70;99.90
51725;DHT22;37801;53.224;6.552;2022-10-17T12:32:37;15.80;99.90
51725;DHT22;37801;53.224;6.552;2022-10-17T12:35:03;15.80;99.90
51725;DHT22;37801;53.224;6.552;2022-10-17T12:51:18;15.80;99.90
51725;DHT22;37801;53.224;6.552;2022-10-17T12:56:34;15.80;99.90
51725;DHT22;37801;53.224;6.552;2022-10-17T12:59:08;15.80;99.90
51725;DHT22;37801;53.224;6.552;2022-10-17T13:01:38;15.80;99.90
51725;DHT22;37801;53.224;6.552;2022-10-17T13:04:09;15.80;99.90
51725;DHT22;37801;53.224;6.552;2022-10-17T13:06:38;15.70;99.90
51725;DHT22;37801;53.224;6.552;2022-10-17T13:12:02;15.60;99.90
51725;DHT22;37801;53.224;6.552;2022-10-17T13:14:30;15.70;99.90
51725;DHT22;37801;53.224;6.552;2022-10-17T13:17:03;15.70;99.90
51725;DHT22;37801;53.224;6.552;2022-10-17T13:19:41;15.60;99.90
51725;DHT22;37801;53.224;6.552;2022-10-17T13:22:24;15.60;99.90
51725;DHT22;37801;53.224;6.552;2022-10-17T13:24:52;15.60;99.90
51725;DHT22;37801;53.224;6.552;2022-10-17T13:27:38;15.60;99.90
51725;DHT22;37801;53.224;6.552;2022-10-17T13:30:31;15.60;99.90
51725;DHT22;37801;53.224;6.552;2022-10-17T13:32:58;15.60;99.90
51725;DHT22;37801;53.224;6.552;2022-10-17T13:35:33;15.60;99.90
51725;DHT22;37801;53.224;6.552;2022-10-17T13:38:01;15.70;99.90
51725;DHT22;37801;53.224;6.552;2022-10-17T13:40:29;15.60;99.90
51725;DHT22;37801;53.224;6.552;2022-10-17T13:42:57;15.60;99.90
51725;DHT22;37801;53.224;6.552;2022-10-17T13:45:29;15.60;99.90
51725;DHT22;37801;53.224;6.552;2022-10-17T13:48:03;15.60;99.90
51725;DHT22;37801;53.224;6.552;2022-10-17T13:53:15;15.50;99.90
51725;DHT22;37801;53.224;6.552;2022-10-17T13:58:22;15.50;99.90
51725;DHT22;37801;53.224;6.552;2022-10-17T14:00:48;15.50;99.90
51725;DHT22;37801;53.224;6.552;2022-10-17T14:03:18;15.50;99.90
51725;DHT22;37801;53.224;6.552;2022-10-17T14:06:22;15.40;99.90
51725;DHT22;37801;53.224;6.552;2022-10-17T14:11:27;15.50;99.90
51725;DHT22;37801;53.224;6.552;2022-10-17T14:13:55;15.50;99.90
51725;DHT22;37801;53.224;6.552;2022-10-17T14:16:23;15.40;99.90
51725;DHT22;37801;53.224;6.552;2022-10-17T14:18:51;15.40;99.90
51725;DHT22;37801;53.224;6.552;2022-10-17T14:21:20;15.50;99.90
51725;DHT22;37801;53.224;6.552;2022-10-17T14:23:46;15.40;99.90
51725;DHT22;37801;53.224;6.552;2022-10-17T14:26:21;15.40;99.90
51725;DHT22;37801;53.224;6.552;2022-10-17T14:29:29;15.30;99.90
51725;DHT22;37801;53.224;6.552;2022-10-17T14:32:11;15.30;99.90
51725;DHT22;37801;53.224;6.552;2022-10-17T14:34:39;15.30;99.90
51725;DHT22;37801;53.224;6.552;2022-10-17T14:37:11;15.30;99.90
51725;DHT22;37801;53.224;6.552;2022-10-17T14:39:37;15.20;99.90
51725;DHT22;37801;53.224;6.552;2022-10-17T14:42:03;15.20;99.90
51725;DHT22;37801;53.224;6.552;2022-10-17T14:44:34;15.20;99.90
51725;DHT22;37801;53.224;6.552;2022-10-17T14:47:03;15.20;99.90
51725;DHT22;37801;53.224;6.552;2022-10-17T14:49:39;15.20;99.90
51725;DHT22;37801;53.224;6.552;2022-10-17T14:54:42;15.20;99.90
51725;DHT22;37801;53.224;6.552;2022-10-17T14:59:56;15.10;99.90
51725;DHT22;37801;53.224;6.552;2022-10-17T15:02:27;15.10;99.90
51725;DHT22;37801;53.224;6.552;2022-10-17T15:04:53;15.10;99.90
51725;DHT22;37801;53.224;6.552;2022-10-17T15:07:19;15.10;99.90
51725;DHT22;37801;53.224;6.552;2022-10-17T15:09:47;15.10;99.90
51725;DHT22;37801;53.224;6.552;2022-10-17T15:12:16;15.20;99.90
51725;DHT22;37801;53.224;6.552;2022-10-17T15:14:42;15.20;99.90
51725;DHT22;37801;53.224;6.552;2022-10-17T15:17:12;15.10;99.90
51725;DHT22;37801;53.224;6.552;2022-10-17T15:19:38;15.10;99.90
51725;DHT22;37801;53.224;6.552;2022-10-17T15:22:04;15.20;99.90
51725;DHT22;37801;53.224;6.552;2022-10-17T15:24:29;15.20;99.90
51725;DHT22;37801;53.224;6.552;2022-10-17T15:26:55;15.20;99.90
51725;DHT22;37801;53.224;6.552;2022-10-17T15:29:21;15.20;99.90
51725;DHT22;37801;53.224;6.552;2022-10-17T15:31:47;15.20;99.90
51725;DHT22;37801;53.224;6.552;2022-10-17T15:34:12;15.20;99.90
51725;DHT22;37801;53.224;6.552;2022-10-17T15:36:40;15.20;99.90
51725;DHT22;37801;53.224;6.552;2022-10-17T15:39:06;15.20;99.90
51725;DHT22;37801;53.224;6.552;2022-10-17T15:41:32;15.10;99.90
51725;DHT22;37801;53.224;6.552;2022-10-17T15:43:58;15.10;99.90
51725;DHT22;37801;53.224;6.552;2022-10-17T15:46:26;15.00;99.90
51725;DHT22;37801;53.224;6.552;2022-10-17T15:48:53;15.00;99.90
51725;DHT22;37801;53.224;6.552;2022-10-17T15:51:20;14.90;99.90
51725;DHT22;37801;53.224;6.552;2022-10-17T15:53:46;14.90;99.90
51725;DHT22;37801;53.224;6.552;2022-10-17T15:58:45;14.80;99.90
51725;DHT22;37801;53.224;6.552;2022-10-17T16:01:22;14.80;99.90
51725;DHT22;37801;53.224;6.552;2022-10-17T16:03:49;14.80;99.90
51725;DHT22;37801;53.224;6.552;2022-10-17T16:06:16;14.80;99.90
51725;DHT22;37801;53.224;6.552;2022-10-17T16:08:42;14.80;99.90
51725;DHT22;37801;53.224;6.552;2022-10-17T16:11:33;14.70;99.90
51725;DHT22;37801;53.224;6.552;2022-10-17T16:14:03;14.70;99.90
51725;DHT22;37801;53.224;6.552;2022-10-17T16:16:29;14.70;99.90
51725;DHT22;37801;53.224;6.552;2022-10-17T16:18:55;14.70;99.90
51725;DHT22;37801;53.224;6.552;2022-10-17T16:21:28;14.70;99.90
51725;DHT22;37801;53.224;6.552;2022-10-17T16:23:55;14.60;99.90
51725;DHT22;37801;53.224;6.552;2022-10-17T16:26:21;14.60;99.90
51725;DHT22;37801;53.224;6.552;2022-10-17T16:28:47;14.60;99.90
51725;DHT22;37801;53.224;6.552;2022-10-17T16:31:19;14.60;99.90
51725;DHT22;37801;53.224;6.552;2022-10-17T16:33:46;14.60;99.90
51725;DHT22;37801;53.224;6.552;2022-10-17T16:36:12;14.60;99.90
51725;DHT22;37801;53.224;6.552;2022-10-17T16:38:38;14.50;99.90
51725;DHT22;37801;53.224;6.552;2022-10-17T16:41:12;14.50;99.90
51725;DHT22;37801;53.224;6.552;2022-10-17T16:43:38;14.50;99.90
51725;DHT22;37801;53.224;6.552;2022-10-17T16:46:04;14.50;99.90
51725;DHT22;37801;53.224;6.552;2022-10-17T16:48:30;14.40;99.90
51725;DHT22;37801;53.224;6.552;2022-10-17T16:50:55;14.40;99.90
51725;DHT22;37801;53.224;6.552;2022-10-17T16:53:21;14.40;99.90
51725;DHT22;37801;53.224;6.552;2022-10-17T16:55:58;14.40;99.90
51725;DHT22;37801;53.224;6.552;2022-10-17T16:58:24;14.40;99.90
51725;DHT22;37801;53.224;6.552;2022-10-17T17:00:51;14.40;99.90
51725;DHT22;37801;53.224;6.552;2022-10-17T17:03:18;14.40;99.90
51725;DHT22;37801;53.224;6.552;2022-10-17T17:05:49;14.30;99.90
51725;DHT22;37801;53.224;6.552;2022-10-17T17:08:16;14.30;99.90
51725;DHT22;37801;53.224;6.552;2022-10-17T17:10:46;14.30;99.90
51725;DHT22;37801;53.224;6.552;2022-10-17T17:13:14;14.30;99.90
51725;DHT22;37801;53.224;6.552;2022-10-17T17:15:40;14.30;99.90
51725;DHT22;37801;53.224;6.552;2022-10-17T17:18:05;14.30;99.90
51725;DHT22;37801;53.224;6.552;2022-10-17T17:20:32;14.30;99.90
51725;DHT22;37801;53.224;6.552;2022-10-17T17:22:58;14.30;99.90
51725;DHT22;37801;53.224;6.552;2022-10-17T17:25:24;14.20;99.90
51725;DHT22;37801;53.224;6.552;2022-10-17T17:27:49;14.20;99.90
51725;DHT22;37801;53.224;6.552;2022-10-17T17:30:15;14.20;99.90
51725;DHT22;37801;53.224;6.552;2022-10-17T17:32:41;14.20;99.90
51725;DHT22;37801;53.224;6.552;2022-10-17T17:35:07;14.20;99.90
51725;DHT22;37801;53.224;6.552;2022-10-17T17:37:34;14.20;99.90
51725;DHT22;37801;53.224;6.552;2022-10-17T17:40:00;14.20;99.90
51725;DHT22;37801;53.224;6.552;2022-10-17T17:42:26;14.20;99.90
51725;DHT22;37801;53.224;6.552;2022-10-17T17:44:51;14.10;99.90
51725;DHT22;37801;53.224;6.552;2022-10-17T17:47:17;14.20;99.90
51725;DHT22;37801;53.224;6.552;2022-10-17T17:49:43;14.20;99.90
51725;DHT22;37801;53.224;6.552;2022-10-17T17:52:09;14.20;99.90